Aeroporto :
LOGIN :

Iscrizione | Disclaimer

   EN    FR    IT 

 










Sommario :    VFR   VFR Marginale   IFR   IFR Intensivo   IFR Molto Intensivo
Visibilità : 
Base nubi : 
>= 8 km
>= 3000ft
5 / 8 km
1000 / 3000 ft
1500m / 5 km
500 / 1000 ft
800 / 1500m
200 / 500 ft
< 800m
< 200 ft
Simboli :   Temporali  Nebbia  Neve Forte  Precipitazioni Forti  Vento > 20 kt
SIGMETs :   Varie  Temporali  Ghiacco  Turbolenza  Onda orograficha  Ceneri Vulcaniche






- Altitudine del aeroporto : 295 ft
- Codice IATA : BWE


EDVE - Braunschweig

ULTIMO METAR :
  • 291350Z 16008KT 130V200 CAVOK 12/05 Q0990

METARs OBSOLETI :
  • 291320Z 15012KT CAVOK 11/05 Q0991
  • 291250Z 17012KT 150V210 CAVOK 13/05 Q0991
  • 291220Z 17008KT 110V210 CAVOK 13/05 Q0992
  • 291150Z 18011KT 140V230 CAVOK 12/04 Q0993
  • 291120Z 20011KT 160V230 CAVOK 11/04 Q0994
  • 291050Z 21013KT 170V240 CAVOK 10/04 Q0994

TAF TAF EDVE
Valido dal 29 a 12 ore il 29 a 21 ore UTC


291100Z 2912/2921 20013KT 9999 SCT040
TEMPO 2912/2917 21015G25KT
BECMG 2917/2919 26020G45KT RA
BECMG 2919/2921 24015KT NSW



MetMap, La meteo Aeronautica in un colpo d'occhio ! - Copyright ORBIFLY Dicembre 2007 - Disclaimer

ORBIFLY MET'MAP TEAM :

Programmazione e sviluppo : Alexandra Zaïnal
Concezione : Baudouin d'Aumeries
Aiuto per la programmazione : Marc-Olivier Méhu
Supporto tecnico e logistico : Manuel Goepfert
Aiuto per la traduzione : Arnaldo La Scala

Contatto : metmap@orbifly.com




FONTI E CREDITI :

   NOAA